sensor_id;sensor_type;location;lat;lon;timestamp;temperature;humidity
41953;DHT22;47381;28.206;112.926;2022-07-12T00:01:39;30.90;51.90
41953;DHT22;47381;28.206;112.926;2022-07-12T00:04:09;31.00;52.40
41953;DHT22;47381;28.206;112.926;2022-07-12T00:06:39;31.00;52.50
41953;DHT22;47381;28.206;112.926;2022-07-12T00:09:09;31.00;52.90
41953;DHT22;47381;28.206;112.926;2022-07-12T00:11:39;31.00;53.00
41953;DHT22;47381;28.206;112.926;2022-07-12T00:14:26;31.00;52.90
41953;DHT22;47381;28.206;112.926;2022-07-12T00:16:53;31.00;53.30
41953;DHT22;47381;28.206;112.926;2022-07-12T00:19:21;31.00;53.10
41953;DHT22;47381;28.206;112.926;2022-07-12T00:21:48;31.10;53.10
41953;DHT22;47381;28.206;112.926;2022-07-12T00:24:15;31.00;53.00
41953;DHT22;47381;28.206;112.926;2022-07-12T00:26:42;31.10;53.00
41953;DHT22;47381;28.206;112.926;2022-07-12T00:29:09;31.10;53.30
41953;DHT22;47381;28.206;112.926;2022-07-12T00:31:57;31.10;53.80
41953;DHT22;47381;28.206;112.926;2022-07-12T00:34:24;31.10;53.70
41953;DHT22;47381;28.206;112.926;2022-07-12T00:36:51;31.20;53.80
41953;DHT22;47381;28.206;112.926;2022-07-12T00:39:18;31.10;53.80
41953;DHT22;47381;28.206;112.926;2022-07-12T00:41:48;31.10;54.20
41953;DHT22;47381;28.206;112.926;2022-07-12T00:44:15;31.20;54.80
41953;DHT22;47381;28.206;112.926;2022-07-12T00:46:43;31.20;54.80
41953;DHT22;47381;28.206;112.926;2022-07-12T00:49:13;31.20;54.70
41953;DHT22;47381;28.206;112.926;2022-07-12T00:51:43;31.20;54.70
41953;DHT22;47381;28.206;112.926;2022-07-12T00:54:11;31.20;54.80
41953;DHT22;47381;28.206;112.926;2022-07-12T00:56:40;31.20;55.00
41953;DHT22;47381;28.206;112.926;2022-07-12T00:59:07;31.20;54.70
41953;DHT22;47381;28.206;112.926;2022-07-12T01:01:34;31.20;54.20
41953;DHT22;47381;28.206;112.926;2022-07-12T01:04:02;31.20;54.20
41953;DHT22;47381;28.206;112.926;2022-07-12T01:09:16;31.20;54.00
41953;DHT22;47381;28.206;112.926;2022-07-12T01:11:44;31.30;54.30
41953;DHT22;47381;28.206;112.926;2022-07-12T01:14:11;31.30;54.30
41953;DHT22;47381;28.206;112.926;2022-07-12T01:16:40;31.30;54.70
41953;DHT22;47381;28.206;112.926;2022-07-12T01:19:09;31.30;54.30
41953;DHT22;47381;28.206;112.926;2022-07-12T01:21:45;31.30;54.40
41953;DHT22;47381;28.206;112.926;2022-07-12T01:24:13;31.30;54.90
41953;DHT22;47381;28.206;112.926;2022-07-12T01:26:41;31.30;55.20
41953;DHT22;47381;28.206;112.926;2022-07-12T01:29:08;31.30;55.10
41953;DHT22;47381;28.206;112.926;2022-07-12T01:31:56;31.40;54.40
41953;DHT22;47381;28.206;112.926;2022-07-12T01:34:43;31.30;54.30
41953;DHT22;47381;28.206;112.926;2022-07-12T01:37:12;31.40;55.10
41953;DHT22;47381;28.206;112.926;2022-07-12T01:39:42;31.40;54.40
41953;DHT22;47381;28.206;112.926;2022-07-12T01:42:09;31.40;54.80
41953;DHT22;47381;28.206;112.926;2022-07-12T01:44:56;31.40;55.00
41953;DHT22;47381;28.206;112.926;2022-07-12T01:47:29;31.40;54.70
41953;DHT22;47381;28.206;112.926;2022-07-12T01:49:58;31.40;54.50
41953;DHT22;47381;28.206;112.926;2022-07-12T01:52:26;31.40;54.60
41953;DHT22;47381;28.206;112.926;2022-07-12T01:54:54;31.50;54.10
41953;DHT22;47381;28.206;112.926;2022-07-12T01:57:24;31.50;55.10
41953;DHT22;47381;28.206;112.926;2022-07-12T01:59:52;31.50;55.20
41953;DHT22;47381;28.206;112.926;2022-07-12T02:02:19;31.50;55.20
41953;DHT22;47381;28.206;112.926;2022-07-12T02:04:46;31.50;54.60
41953;DHT22;47381;28.206;112.926;2022-07-12T02:07:13;31.50;55.10
41953;DHT22;47381;28.206;112.926;2022-07-12T02:09:41;31.50;55.00
41953;DHT22;47381;28.206;112.926;2022-07-12T02:12:09;31.60;55.20
41953;DHT22;47381;28.206;112.926;2022-07-12T02:14:56;31.60;55.30
41953;DHT22;47381;28.206;112.926;2022-07-12T02:17:23;31.60;54.90
41953;DHT22;47381;28.206;112.926;2022-07-12T02:19:50;31.60;54.90
41953;DHT22;47381;28.206;112.926;2022-07-12T02:22:17;31.60;55.00
41953;DHT22;47381;28.206;112.926;2022-07-12T02:24:45;31.60;55.40
41953;DHT22;47381;28.206;112.926;2022-07-12T02:27:12;31.70;55.50
41953;DHT22;47381;28.206;112.926;2022-07-12T02:29:39;31.60;55.50
41953;DHT22;47381;28.206;112.926;2022-07-12T02:32:26;31.70;56.20
41953;DHT22;47381;28.206;112.926;2022-07-12T02:34:53;31.70;56.10
41953;DHT22;47381;28.206;112.926;2022-07-12T02:37:21;31.70;56.20
41953;DHT22;47381;28.206;112.926;2022-07-12T02:39:48;31.70;55.60
41953;DHT22;47381;28.206;112.926;2022-07-12T02:42:15;31.70;55.00
41953;DHT22;47381;28.206;112.926;2022-07-12T02:44:42;31.70;55.30
41953;DHT22;47381;28.206;112.926;2022-07-12T02:47:09;31.70;54.40
41953;DHT22;47381;28.206;112.926;2022-07-12T02:49:36;31.70;54.10
41953;DHT22;47381;28.206;112.926;2022-07-12T02:52:04;31.70;53.60
41953;DHT22;47381;28.206;112.926;2022-07-12T02:54:31;31.70;53.90
41953;DHT22;47381;28.206;112.926;2022-07-12T02:57:00;31.70;54.60
41953;DHT22;47381;28.206;112.926;2022-07-12T02:59:27;31.70;53.80
41953;DHT22;47381;28.206;112.926;2022-07-12T03:01:54;31.70;54.20
41953;DHT22;47381;28.206;112.926;2022-07-12T03:04:21;31.80;54.90
41953;DHT22;47381;28.206;112.926;2022-07-12T03:06:48;31.80;54.40
41953;DHT22;47381;28.206;112.926;2022-07-12T03:09:17;31.80;54.20
41953;DHT22;47381;28.206;112.926;2022-07-12T03:11:44;31.80;54.00
41953;DHT22;47381;28.206;112.926;2022-07-12T03:14:11;31.80;54.10
41953;DHT22;47381;28.206;112.926;2022-07-12T03:16:38;31.80;53.80
41953;DHT22;47381;28.206;112.926;2022-07-12T03:19:06;31.90;53.30
41953;DHT22;47381;28.206;112.926;2022-07-12T03:21:33;31.80;53.10
41953;DHT22;47381;28.206;112.926;2022-07-12T03:24:00;31.90;52.90
41953;DHT22;47381;28.206;112.926;2022-07-12T03:26:27;31.90;52.20
41953;DHT22;47381;28.206;112.926;2022-07-12T03:28:54;31.90;52.90
41953;DHT22;47381;28.206;112.926;2022-07-12T03:31:22;31.90;53.20
41953;DHT22;47381;28.206;112.926;2022-07-12T03:33:59;31.90;53.80
41953;DHT22;47381;28.206;112.926;2022-07-12T03:36:47;31.90;53.50
41953;DHT22;47381;28.206;112.926;2022-07-12T03:39:14;31.90;53.60
41953;DHT22;47381;28.206;112.926;2022-07-12T03:41:41;32.00;52.90
41953;DHT22;47381;28.206;112.926;2022-07-12T03:44:08;31.90;53.00
41953;DHT22;47381;28.206;112.926;2022-07-12T03:46:35;31.90;52.50
41953;DHT22;47381;28.206;112.926;2022-07-12T03:49:03;32.00;52.70
41953;DHT22;47381;28.206;112.926;2022-07-12T03:51:31;32.00;52.40
41953;DHT22;47381;28.206;112.926;2022-07-12T03:53:58;32.00;51.80
41953;DHT22;47381;28.206;112.926;2022-07-12T03:56:26;32.00;52.60
41953;DHT22;47381;28.206;112.926;2022-07-12T03:59:11;32.00;51.70
41953;DHT22;47381;28.206;112.926;2022-07-12T04:01:38;32.00;52.20
41953;DHT22;47381;28.206;112.926;2022-07-12T04:04:05;32.00;51.50
41953;DHT22;47381;28.206;112.926;2022-07-12T04:06:32;32.00;52.10
41953;DHT22;47381;28.206;112.926;2022-07-12T04:09:00;32.10;52.50
41953;DHT22;47381;28.206;112.926;2022-07-12T04:11:27;32.10;52.00
41953;DHT22;47381;28.206;112.926;2022-07-12T04:13:54;32.10;52.20
41953;DHT22;47381;28.206;112.926;2022-07-12T04:16:21;32.10;51.60
41953;DHT22;47381;28.206;112.926;2022-07-12T04:18:48;32.10;51.10
41953;DHT22;47381;28.206;112.926;2022-07-12T04:21:15;32.10;50.50
41953;DHT22;47381;28.206;112.926;2022-07-12T04:23:42;32.10;50.00
41953;DHT22;47381;28.206;112.926;2022-07-12T04:26:09;32.10;49.40
41953;DHT22;47381;28.206;112.926;2022-07-12T04:28:57;32.10;48.80
41953;DHT22;47381;28.206;112.926;2022-07-12T04:31:24;32.20;49.20
41953;DHT22;47381;28.206;112.926;2022-07-12T04:33:51;32.20;49.30
41953;DHT22;47381;28.206;112.926;2022-07-12T04:36:19;32.20;48.70
41953;DHT22;47381;28.206;112.926;2022-07-12T04:38:46;32.20;48.10
41953;DHT22;47381;28.206;112.926;2022-07-12T04:41:13;32.20;47.30
41953;DHT22;47381;28.206;112.926;2022-07-12T04:43:40;32.20;47.50
41953;DHT22;47381;28.206;112.926;2022-07-12T04:46:09;32.20;48.00
41953;DHT22;47381;28.206;112.926;2022-07-12T04:48:37;32.20;49.00
41953;DHT22;47381;28.206;112.926;2022-07-12T04:51:04;32.20;49.40
41953;DHT22;47381;28.206;112.926;2022-07-12T04:53:42;32.20;49.80
41953;DHT22;47381;28.206;112.926;2022-07-12T04:56:11;32.30;48.50
41953;DHT22;47381;28.206;112.926;2022-07-12T04:58:38;32.30;47.80
41953;DHT22;47381;28.206;112.926;2022-07-12T05:01:05;32.30;47.30
41953;DHT22;47381;28.206;112.926;2022-07-12T05:03:35;32.30;49.00
41953;DHT22;47381;28.206;112.926;2022-07-12T05:06:02;32.30;48.50
41953;DHT22;47381;28.206;112.926;2022-07-12T05:08:29;32.40;48.30
41953;DHT22;47381;28.206;112.926;2022-07-12T05:10:56;32.40;47.80
41953;DHT22;47381;28.206;112.926;2022-07-12T05:13:23;32.40;47.40
41953;DHT22;47381;28.206;112.926;2022-07-12T05:15:51;32.40;46.90
41953;DHT22;47381;28.206;112.926;2022-07-12T05:18:21;32.40;46.60
41953;DHT22;47381;28.206;112.926;2022-07-12T05:20:48;32.40;47.70
41953;DHT22;47381;28.206;112.926;2022-07-12T05:23:16;32.50;49.10
41953;DHT22;47381;28.206;112.926;2022-07-12T05:25:44;32.60;50.10
41953;DHT22;47381;28.206;112.926;2022-07-12T05:28:12;32.50;50.50
41953;DHT22;47381;28.206;112.926;2022-07-12T05:30:43;32.60;50.90
41953;DHT22;47381;28.206;112.926;2022-07-12T05:33:30;32.60;51.40
41953;DHT22;47381;28.206;112.926;2022-07-12T05:35:57;32.70;51.30
41953;DHT22;47381;28.206;112.926;2022-07-12T05:38:28;32.60;50.50
41953;DHT22;47381;28.206;112.926;2022-07-12T05:40:55;32.70;49.70
41953;DHT22;47381;28.206;112.926;2022-07-12T05:43:22;32.70;49.40
41953;DHT22;47381;28.206;112.926;2022-07-12T05:45:49;32.70;48.60
41953;DHT22;47381;28.206;112.926;2022-07-12T05:48:40;32.70;48.30
41953;DHT22;47381;28.206;112.926;2022-07-12T05:51:07;32.70;47.80
41953;DHT22;47381;28.206;112.926;2022-07-12T05:54:07;32.70;48.00
41953;DHT22;47381;28.206;112.926;2022-07-12T05:56:38;32.70;48.80
41953;DHT22;47381;28.206;112.926;2022-07-12T05:59:06;32.70;49.20
41953;DHT22;47381;28.206;112.926;2022-07-12T06:01:34;32.70;50.30
41953;DHT22;47381;28.206;112.926;2022-07-12T06:04:05;32.70;49.60
41953;DHT22;47381;28.206;112.926;2022-07-12T06:06:32;32.70;49.60
41953;DHT22;47381;28.206;112.926;2022-07-12T06:08:59;32.80;50.30
41953;DHT22;47381;28.206;112.926;2022-07-12T06:11:46;32.80;50.00
41953;DHT22;47381;28.206;112.926;2022-07-12T06:14:16;32.80;50.80
41953;DHT22;47381;28.206;112.926;2022-07-12T06:16:44;32.90;50.80
41953;DHT22;47381;28.206;112.926;2022-07-12T06:19:11;32.90;51.80
41953;DHT22;47381;28.206;112.926;2022-07-12T06:21:39;32.90;52.10
41953;DHT22;47381;28.206;112.926;2022-07-12T06:24:06;32.90;51.00
41953;DHT22;47381;28.206;112.926;2022-07-12T06:26:34;32.80;50.30
41953;DHT22;47381;28.206;112.926;2022-07-12T06:29:01;32.80;49.50
41953;DHT22;47381;28.206;112.926;2022-07-12T06:31:28;32.80;49.50
41953;DHT22;47381;28.206;112.926;2022-07-12T06:33:56;32.90;49.90
41953;DHT22;47381;28.206;112.926;2022-07-12T06:36:23;32.90;51.20
41953;DHT22;47381;28.206;112.926;2022-07-12T06:39:10;32.90;51.10
41953;DHT22;47381;28.206;112.926;2022-07-12T06:41:38;32.90;50.60
41953;DHT22;47381;28.206;112.926;2022-07-12T06:44:05;32.90;50.90
41953;DHT22;47381;28.206;112.926;2022-07-12T06:46:32;32.90;50.90
41953;DHT22;47381;28.206;112.926;2022-07-12T06:49:20;32.90;51.50
41953;DHT22;47381;28.206;112.926;2022-07-12T06:51:48;32.90;51.70
41953;DHT22;47381;28.206;112.926;2022-07-12T06:54:17;32.90;52.60
41953;DHT22;47381;28.206;112.926;2022-07-12T06:56:46;33.00;53.10
41953;DHT22;47381;28.206;112.926;2022-07-12T06:59:14;33.00;53.50
41953;DHT22;47381;28.206;112.926;2022-07-12T07:01:41;33.00;53.50
41953;DHT22;47381;28.206;112.926;2022-07-12T07:04:08;33.00;53.40
41953;DHT22;47381;28.206;112.926;2022-07-12T07:06:35;33.00;53.50
41953;DHT22;47381;28.206;112.926;2022-07-12T07:09:03;33.00;53.20
41953;DHT22;47381;28.206;112.926;2022-07-12T07:11:34;33.10;53.20
41953;DHT22;47381;28.206;112.926;2022-07-12T07:14:03;33.00;52.50
41953;DHT22;47381;28.206;112.926;2022-07-12T07:16:33;33.00;51.60
41953;DHT22;47381;28.206;112.926;2022-07-12T07:19:20;33.00;51.70
41953;DHT22;47381;28.206;112.926;2022-07-12T07:22:11;33.00;51.20
41953;DHT22;47381;28.206;112.926;2022-07-12T07:24:42;33.00;50.20
41953;DHT22;47381;28.206;112.926;2022-07-12T07:27:09;33.00;50.60
41953;DHT22;47381;28.206;112.926;2022-07-12T07:29:36;33.00;50.30
41953;DHT22;47381;28.206;112.926;2022-07-12T07:32:21;33.00;49.70
41953;DHT22;47381;28.206;112.926;2022-07-12T07:34:49;32.90;50.20
41953;DHT22;47381;28.206;112.926;2022-07-12T07:37:36;32.90;50.40
41953;DHT22;47381;28.206;112.926;2022-07-12T07:40:04;32.90;49.70
41953;DHT22;47381;28.206;112.926;2022-07-12T07:42:33;32.90;49.20
41953;DHT22;47381;28.206;112.926;2022-07-12T07:45:20;32.90;48.60
41953;DHT22;47381;28.206;112.926;2022-07-12T07:47:49;32.90;48.40
41953;DHT22;47381;28.206;112.926;2022-07-12T07:50:16;32.90;47.70
41953;DHT22;47381;28.206;112.926;2022-07-12T07:52:44;32.90;47.30
41953;DHT22;47381;28.206;112.926;2022-07-12T07:55:12;32.90;47.00
41953;DHT22;47381;28.206;112.926;2022-07-12T07:57:39;32.90;46.50
41953;DHT22;47381;28.206;112.926;2022-07-12T08:00:07;32.90;46.40
41953;DHT22;47381;28.206;112.926;2022-07-12T08:02:37;32.90;46.00
41953;DHT22;47381;28.206;112.926;2022-07-12T08:05:05;32.80;46.10
41953;DHT22;47381;28.206;112.926;2022-07-12T08:07:35;32.90;46.70
41953;DHT22;47381;28.206;112.926;2022-07-12T08:10:02;32.80;45.60
41953;DHT22;47381;28.206;112.926;2022-07-12T08:12:29;32.80;45.20
41953;DHT22;47381;28.206;112.926;2022-07-12T08:15:16;32.80;46.80
41953;DHT22;47381;28.206;112.926;2022-07-12T08:17:44;32.80;46.60
41953;DHT22;47381;28.206;112.926;2022-07-12T08:20:11;32.90;47.90
41953;DHT22;47381;28.206;112.926;2022-07-12T08:22:48;32.80;47.80
41953;DHT22;47381;28.206;112.926;2022-07-12T08:25:16;32.80;49.00
41953;DHT22;47381;28.206;112.926;2022-07-12T08:27:43;32.80;49.70
41953;DHT22;47381;28.206;112.926;2022-07-12T08:30:30;32.90;48.90
41953;DHT22;47381;28.206;112.926;2022-07-12T08:32:58;32.80;49.30
41953;DHT22;47381;28.206;112.926;2022-07-12T08:35:46;32.80;48.50
41953;DHT22;47381;28.206;112.926;2022-07-12T08:38:13;32.80;50.30
41953;DHT22;47381;28.206;112.926;2022-07-12T08:40:42;32.90;50.50
41953;DHT22;47381;28.206;112.926;2022-07-12T08:43:10;32.90;50.10
41953;DHT22;47381;28.206;112.926;2022-07-12T08:45:37;32.90;49.90
41953;DHT22;47381;28.206;112.926;2022-07-12T08:48:10;32.90;50.70
41953;DHT22;47381;28.206;112.926;2022-07-12T08:51:11;32.80;49.60
41953;DHT22;47381;28.206;112.926;2022-07-12T08:53:39;32.80;48.90
41953;DHT22;47381;28.206;112.926;2022-07-12T08:56:07;32.80;48.20
41953;DHT22;47381;28.206;112.926;2022-07-12T08:58:38;32.80;48.10
41953;DHT22;47381;28.206;112.926;2022-07-12T09:01:07;32.70;47.30
41953;DHT22;47381;28.206;112.926;2022-07-12T09:03:34;32.80;48.30
41953;DHT22;47381;28.206;112.926;2022-07-12T09:06:06;32.70;47.90
41953;DHT22;47381;28.206;112.926;2022-07-12T09:08:33;32.70;48.30
41953;DHT22;47381;28.206;112.926;2022-07-12T09:11:02;32.70;48.10
41953;DHT22;47381;28.206;112.926;2022-07-12T09:13:49;32.80;48.20
41953;DHT22;47381;28.206;112.926;2022-07-12T09:16:36;32.70;48.20
41953;DHT22;47381;28.206;112.926;2022-07-12T09:19:14;32.70;47.40
41953;DHT22;47381;28.206;112.926;2022-07-12T09:21:51;32.70;47.10
41953;DHT22;47381;28.206;112.926;2022-07-12T09:24:19;32.70;47.20
41953;DHT22;47381;28.206;112.926;2022-07-12T09:26:47;32.70;47.90
41953;DHT22;47381;28.206;112.926;2022-07-12T09:29:14;32.70;47.30
41953;DHT22;47381;28.206;112.926;2022-07-12T09:31:45;32.70;47.20
41953;DHT22;47381;28.206;112.926;2022-07-12T09:34:32;32.70;47.80
41953;DHT22;47381;28.206;112.926;2022-07-12T09:37:18;32.70;47.70
41953;DHT22;47381;28.206;112.926;2022-07-12T09:39:46;32.70;46.90
41953;DHT22;47381;28.206;112.926;2022-07-12T09:42:14;32.60;45.80
41953;DHT22;47381;28.206;112.926;2022-07-12T09:44:42;32.70;45.80
41953;DHT22;47381;28.206;112.926;2022-07-12T09:47:11;32.70;46.20
41953;DHT22;47381;28.206;112.926;2022-07-12T09:49:40;32.70;45.90
41953;DHT22;47381;28.206;112.926;2022-07-12T09:52:27;32.70;46.10
41953;DHT22;47381;28.206;112.926;2022-07-12T09:54:56;32.60;46.00
41953;DHT22;47381;28.206;112.926;2022-07-12T09:59:56;32.60;46.30
41953;DHT22;47381;28.206;112.926;2022-07-12T10:02:25;32.60;45.90
41953;DHT22;47381;28.206;112.926;2022-07-12T10:04:58;32.60;46.00
41953;DHT22;47381;28.206;112.926;2022-07-12T10:07:46;32.60;46.50
41953;DHT22;47381;28.206;112.926;2022-07-12T10:10:14;32.60;46.50
41953;DHT22;47381;28.206;112.926;2022-07-12T10:12:43;32.60;46.30
41953;DHT22;47381;28.206;112.926;2022-07-12T10:15:19;32.60;46.20
41953;DHT22;47381;28.206;112.926;2022-07-12T10:18:08;32.60;46.60
41953;DHT22;47381;28.206;112.926;2022-07-12T10:20:45;32.50;46.50
41953;DHT22;47381;28.206;112.926;2022-07-12T10:23:32;32.50;46.70
41953;DHT22;47381;28.206;112.926;2022-07-12T10:29:08;32.50;47.50
41953;DHT22;47381;28.206;112.926;2022-07-12T10:31:39;32.50;46.80
41953;DHT22;47381;28.206;112.926;2022-07-12T10:34:14;32.50;47.60
41953;DHT22;47381;28.206;112.926;2022-07-12T10:39:25;32.50;47.00
41953;DHT22;47381;28.206;112.926;2022-07-12T10:42:16;32.50;47.10
41953;DHT22;47381;28.206;112.926;2022-07-12T10:44:47;32.50;47.00
41953;DHT22;47381;28.206;112.926;2022-07-12T10:47:16;32.50;47.30
41953;DHT22;47381;28.206;112.926;2022-07-12T10:49:48;32.50;47.70
41953;DHT22;47381;28.206;112.926;2022-07-12T10:52:22;32.50;47.20
41953;DHT22;47381;28.206;112.926;2022-07-12T10:57:41;32.50;47.00
41953;DHT22;47381;28.206;112.926;2022-07-12T11:00:10;32.40;47.50
41953;DHT22;47381;28.206;112.926;2022-07-12T11:02:39;32.40;47.10
41953;DHT22;47381;28.206;112.926;2022-07-12T11:05:27;32.40;47.00
41953;DHT22;47381;28.206;112.926;2022-07-12T11:07:55;32.40;46.80
41953;DHT22;47381;28.206;112.926;2022-07-12T11:10:22;32.40;46.80
41953;DHT22;47381;28.206;112.926;2022-07-12T11:12:49;32.40;46.50
41953;DHT22;47381;28.206;112.926;2022-07-12T11:15:36;32.40;46.90
41953;DHT22;47381;28.206;112.926;2022-07-12T11:18:04;32.40;46.70
41953;DHT22;47381;28.206;112.926;2022-07-12T11:20:35;32.40;46.70
41953;DHT22;47381;28.206;112.926;2022-07-12T11:23:03;32.30;46.50
41953;DHT22;47381;28.206;112.926;2022-07-12T11:25:30;32.30;46.30
41953;DHT22;47381;28.206;112.926;2022-07-12T11:27:58;32.30;46.30
41953;DHT22;47381;28.206;112.926;2022-07-12T11:30:26;32.30;46.00
41953;DHT22;47381;28.206;112.926;2022-07-12T11:32:53;32.30;45.80
41953;DHT22;47381;28.206;112.926;2022-07-12T11:35:21;32.20;45.80
41953;DHT22;47381;28.206;112.926;2022-07-12T11:37:51;32.20;45.90
41953;DHT22;47381;28.206;112.926;2022-07-12T11:40:26;32.30;45.50
41953;DHT22;47381;28.206;112.926;2022-07-12T11:43:01;32.30;45.50
41953;DHT22;47381;28.206;112.926;2022-07-12T11:45:33;32.20;45.20
41953;DHT22;47381;28.206;112.926;2022-07-12T11:48:02;32.30;45.00
41953;DHT22;47381;28.206;112.926;2022-07-12T11:50:30;32.20;44.80
41953;DHT22;47381;28.206;112.926;2022-07-12T11:53:19;32.20;44.50
41953;DHT22;47381;28.206;112.926;2022-07-12T11:55:48;32.20;44.40
41953;DHT22;47381;28.206;112.926;2022-07-12T11:58:16;32.20;44.10
41953;DHT22;47381;28.206;112.926;2022-07-12T12:00:44;32.20;43.90
41953;DHT22;47381;28.206;112.926;2022-07-12T12:03:13;32.20;43.80
41953;DHT22;47381;28.206;112.926;2022-07-12T12:05:41;32.20;43.70
41953;DHT22;47381;28.206;112.926;2022-07-12T12:08:08;32.20;43.60
41953;DHT22;47381;28.206;112.926;2022-07-12T12:10:41;32.20;43.40
41953;DHT22;47381;28.206;112.926;2022-07-12T12:13:15;32.20;42.70
41953;DHT22;47381;28.206;112.926;2022-07-12T12:15:50;32.00;36.10
41953;DHT22;47381;28.206;112.926;2022-07-12T12:21:11;32.00;44.70
41953;DHT22;47381;28.206;112.926;2022-07-12T12:23:42;32.10;52.10
41953;DHT22;47381;28.206;112.926;2022-07-12T12:26:18;32.10;55.40
41953;DHT22;47381;28.206;112.926;2022-07-12T12:28:49;32.10;56.60
41953;DHT22;47381;28.206;112.926;2022-07-12T12:31:36;32.10;58.20
41953;DHT22;47381;28.206;112.926;2022-07-12T12:34:10;32.10;58.60
41953;DHT22;47381;28.206;112.926;2022-07-12T12:37:04;32.10;59.00
41953;DHT22;47381;28.206;112.926;2022-07-12T12:39:31;32.10;59.70
41953;DHT22;47381;28.206;112.926;2022-07-12T12:41:58;32.00;59.10
41953;DHT22;47381;28.206;112.926;2022-07-12T12:44:29;32.00;58.90
41953;DHT22;47381;28.206;112.926;2022-07-12T12:47:00;32.00;59.10
41953;DHT22;47381;28.206;112.926;2022-07-12T12:49:51;32.00;60.90
41953;DHT22;47381;28.206;112.926;2022-07-12T12:52:22;32.10;59.80
41953;DHT22;47381;28.206;112.926;2022-07-12T12:54:49;32.00;60.40
41953;DHT22;47381;28.206;112.926;2022-07-12T12:57:39;32.10;60.50
41953;DHT22;47381;28.206;112.926;2022-07-12T13:00:28;32.10;60.60
41953;DHT22;47381;28.206;112.926;2022-07-12T13:02:58;32.10;60.30
41953;DHT22;47381;28.206;112.926;2022-07-12T13:05:29;32.00;60.10
41953;DHT22;47381;28.206;112.926;2022-07-12T13:07:57;32.00;59.80
41953;DHT22;47381;28.206;112.926;2022-07-12T13:10:25;32.00;59.30
41953;DHT22;47381;28.206;112.926;2022-07-12T13:12:54;32.00;58.80
41953;DHT22;47381;28.206;112.926;2022-07-12T13:15:22;32.10;58.50
41953;DHT22;47381;28.206;112.926;2022-07-12T13:17:50;32.10;58.20
41953;DHT22;47381;28.206;112.926;2022-07-12T13:20:18;32.10;57.90
41953;DHT22;47381;28.206;112.926;2022-07-12T13:22:45;32.10;57.70
41953;DHT22;47381;28.206;112.926;2022-07-12T13:25:13;32.10;57.20
41953;DHT22;47381;28.206;112.926;2022-07-12T13:27:43;32.10;56.70
41953;DHT22;47381;28.206;112.926;2022-07-12T13:30:12;32.10;56.50
41953;DHT22;47381;28.206;112.926;2022-07-12T13:32:43;32.10;56.30
41953;DHT22;47381;28.206;112.926;2022-07-12T13:35:12;32.10;56.10
41953;DHT22;47381;28.206;112.926;2022-07-12T13:37:43;32.10;55.80
41953;DHT22;47381;28.206;112.926;2022-07-12T13:40:10;32.10;54.90
41953;DHT22;47381;28.206;112.926;2022-07-12T13:42:55;32.10;54.70
41953;DHT22;47381;28.206;112.926;2022-07-12T13:45:24;32.10;54.80
41953;DHT22;47381;28.206;112.926;2022-07-12T13:47:52;32.10;54.10
41953;DHT22;47381;28.206;112.926;2022-07-12T13:50:21;32.00;53.50
41953;DHT22;47381;28.206;112.926;2022-07-12T13:52:53;32.00;53.50
41953;DHT22;47381;28.206;112.926;2022-07-12T13:55:20;32.10;53.10
41953;DHT22;47381;28.206;112.926;2022-07-12T13:57:47;32.10;53.20
41953;DHT22;47381;28.206;112.926;2022-07-12T14:00:18;32.00;53.00
41953;DHT22;47381;28.206;112.926;2022-07-12T14:02:48;32.10;52.60
41953;DHT22;47381;28.206;112.926;2022-07-12T14:05:18;32.00;52.60
41953;DHT22;47381;28.206;112.926;2022-07-12T14:07:47;32.00;51.90
41953;DHT22;47381;28.206;112.926;2022-07-12T14:10:15;32.00;51.70
41953;DHT22;47381;28.206;112.926;2022-07-12T14:12:46;32.10;52.20
41953;DHT22;47381;28.206;112.926;2022-07-12T14:15:17;32.10;51.80
41953;DHT22;47381;28.206;112.926;2022-07-12T14:18:06;32.10;51.40
41953;DHT22;47381;28.206;112.926;2022-07-12T14:20:36;32.00;51.40
41953;DHT22;47381;28.206;112.926;2022-07-12T14:23:04;32.10;51.10
41953;DHT22;47381;28.206;112.926;2022-07-12T14:25:37;32.10;51.30
41953;DHT22;47381;28.206;112.926;2022-07-12T14:28:07;32.00;51.10
41953;DHT22;47381;28.206;112.926;2022-07-12T14:30:34;32.00;50.60
41953;DHT22;47381;28.206;112.926;2022-07-12T14:33:01;32.00;50.70
41953;DHT22;47381;28.206;112.926;2022-07-12T14:35:31;32.00;49.60
41953;DHT22;47381;28.206;112.926;2022-07-12T14:38:00;32.10;50.10
41953;DHT22;47381;28.206;112.926;2022-07-12T14:40:27;32.10;50.60
41953;DHT22;47381;28.206;112.926;2022-07-12T14:42:54;32.10;50.90
41953;DHT22;47381;28.206;112.926;2022-07-12T14:45:25;32.00;50.30
41953;DHT22;47381;28.206;112.926;2022-07-12T14:47:52;32.00;50.30
41953;DHT22;47381;28.206;112.926;2022-07-12T14:50:19;32.00;50.10
41953;DHT22;47381;28.206;112.926;2022-07-12T14:52:46;32.00;49.70
41953;DHT22;47381;28.206;112.926;2022-07-12T14:55:15;32.00;49.50
41953;DHT22;47381;28.206;112.926;2022-07-12T14:57:45;32.00;49.00
41953;DHT22;47381;28.206;112.926;2022-07-12T15:00:13;32.00;48.70
41953;DHT22;47381;28.206;112.926;2022-07-12T15:02:42;32.00;48.50
41953;DHT22;47381;28.206;112.926;2022-07-12T15:05:12;32.00;48.30
41953;DHT22;47381;28.206;112.926;2022-07-12T15:07:39;32.00;48.30
41953;DHT22;47381;28.206;112.926;2022-07-12T15:10:08;32.00;48.50
41953;DHT22;47381;28.206;112.926;2022-07-12T15:12:38;32.00;48.40
41953;DHT22;47381;28.206;112.926;2022-07-12T15:15:07;32.00;48.10
41953;DHT22;47381;28.206;112.926;2022-07-12T15:17:34;32.00;47.90
41953;DHT22;47381;28.206;112.926;2022-07-12T15:20:07;32.00;47.90
41953;DHT22;47381;28.206;112.926;2022-07-12T15:22:35;32.00;48.10
41953;DHT22;47381;28.206;112.926;2022-07-12T15:25:02;32.00;47.70
41953;DHT22;47381;28.206;112.926;2022-07-12T15:27:29;32.00;48.20
41953;DHT22;47381;28.206;112.926;2022-07-12T15:29:59;32.00;48.50
41953;DHT22;47381;28.206;112.926;2022-07-12T15:32:26;32.00;48.50
41953;DHT22;47381;28.206;112.926;2022-07-12T15:34:54;31.90;48.00
41953;DHT22;47381;28.206;112.926;2022-07-12T15:37:42;32.00;47.70
41953;DHT22;47381;28.206;112.926;2022-07-12T15:40:10;31.90;47.80
41953;DHT22;47381;28.206;112.926;2022-07-12T15:43:02;32.00;47.80